createdAt,value
2023-04-02T00:00:11.957Z,100764.75
2023-04-02T00:03:10.984Z,100760.91
2023-04-02T00:05:50.895Z,100761.78
2023-04-02T00:08:29.412Z,100757.53
2023-04-02T00:11:00.406Z,100757.53
2023-04-02T00:13:46.945Z,100780.19
2023-04-02T00:16:18.950Z,100770.56
2023-04-02T00:18:50.838Z,100777.69
2023-04-02T00:21:23.954Z,100763.31
2023-04-02T00:23:50.927Z,100785.19
2023-04-02T00:26:37.048Z,100788.72
2023-04-02T00:29:14.867Z,100796.28
2023-04-02T00:31:45.801Z,100807.50
2023-04-02T00:34:24.139Z,100797.31
2023-04-02T00:36:53.024Z,100807.59
2023-04-02T00:39:27.247Z,100823.34
2023-04-02T00:42:05.120Z,100812.34
2023-04-02T00:44:42.706Z,100822.00
2023-04-02T00:47:21.668Z,100824.53
2023-04-02T00:49:57.214Z,100804.69
2023-04-02T00:52:28.574Z,100839.00
2023-04-02T00:55:14.179Z,100845.78
2023-04-02T00:57:45.187Z,100846.13
2023-04-02T01:00:32.132Z,100859.22
2023-04-02T01:03:17.552Z,100872.75
2023-04-02T01:06:11.218Z,100845.25
2023-04-02T01:08:49.768Z,100876.91
2023-04-02T01:12:08.201Z,100876.41
2023-04-02T01:15:09.742Z,100889.84
2023-04-02T01:18:02.539Z,100879.59
2023-04-02T01:20:47.760Z,100890.97
2023-04-02T01:23:28.573Z,100899.03
2023-04-02T01:26:11.652Z,100895.94
2023-04-02T01:29:15.604Z,100874.25
2023-04-02T01:31:44.671Z,100897.06
2023-04-02T01:34:16.740Z,100905.59
2023-04-02T01:37:11.461Z,100928.91
2023-04-02T01:40:05.464Z,100923.25
2023-04-02T01:42:43.587Z,100934.66
2023-04-02T01:45:19.517Z,100924.72
2023-04-02T01:47:46.820Z,100921.41
2023-04-02T01:50:20.198Z,100935.59
2023-04-02T01:52:51.252Z,100941.38
2023-04-02T01:55:49.529Z,100957.75
2023-04-02T01:58:25.380Z,100965.84
2023-04-02T02:01:09.435Z,100957.22
2023-04-02T02:03:44.332Z,100946.19
2023-04-02T02:06:16.026Z,100964.28
2023-04-02T02:08:55.618Z,100972.31
2023-04-02T02:11:27.572Z,100962.28
2023-04-02T02:14:01.144Z,100990.25
2023-04-02T02:16:30.098Z,100967.72
2023-04-02T02:19:01.849Z,100993.81
2023-04-02T02:21:39.181Z,101009.22
2023-04-02T02:24:19.546Z,100999.13
2023-04-02T02:26:51.453Z,101005.47
2023-04-02T02:29:21.949Z,100979.63
2023-04-02T02:31:54.347Z,101010.88
2023-04-02T02:34:30.410Z,101008.63
2023-04-02T02:37:06.707Z,101035.59
2023-04-02T02:39:39.951Z,101040.13
2023-04-02T02:42:27.251Z,101043.75
2023-04-02T02:44:56.619Z,101042.63
2023-04-02T02:47:36.284Z,101065.91
2023-04-02T02:50:14.137Z,101051.25
2023-04-02T02:52:50.338Z,101075.25
2023-04-02T02:55:24.725Z,101066.97
2023-04-02T02:58:23.375Z,101082.78
2023-04-02T03:01:04.695Z,101081.31
2023-04-02T03:03:35.101Z,101083.78
2023-04-02T03:06:09.525Z,101075.25
2023-04-02T03:08:43.766Z,101097.25
2023-04-02T03:11:40.888Z,101110.25
2023-04-02T03:14:45.616Z,101092.28
2023-04-02T03:17:28.126Z,101121.91
2023-04-02T03:20:25.105Z,101128.22
2023-04-02T03:23:13.183Z,101129.97
2023-04-02T03:26:14.580Z,101139.53
2023-04-02T03:28:50.910Z,101126.78
2023-04-02T03:31:31.018Z,101141.25
2023-04-02T03:34:05.638Z,101136.44
2023-04-02T03:36:43.588Z,101150.59
2023-04-02T03:39:20.737Z,101158.72
2023-04-02T03:42:15.653Z,101155.44
2023-04-02T03:45:05.290Z,101168.50
2023-04-02T03:47:49.681Z,101151.91
2023-04-02T03:50:31.741Z,101179.81
2023-04-02T03:53:03.106Z,101183.16
2023-04-02T03:55:34.351Z,101164.75
2023-04-02T03:58:05.533Z,101176.31
2023-04-02T04:00:49.687Z,101194.59
2023-04-02T04:03:25.954Z,101182.81
2023-04-02T04:06:02.856Z,101177.84
2023-04-02T04:08:42.553Z,101196.91
2023-04-02T04:11:16.449Z,101181.41
2023-04-02T04:14:01.416Z,101226.63
2023-04-02T04:16:49.376Z,101223.84
2023-04-02T04:19:21.852Z,101236.31
2023-04-02T04:21:53.948Z,101241.25
2023-04-02T04:24:25.479Z,101231.53
2023-04-02T04:27:36.002Z,101252.31
2023-04-02T04:31:01.006Z,101261.13
2023-04-02T04:33:45.639Z,101259.38
2023-04-02T04:36:29.774Z,101267.47
2023-04-02T04:39:14.573Z,101264.19
2023-04-02T04:41:46.748Z,101283.56
2023-04-02T04:44:28.745Z,101279.97
2023-04-02T04:47:40.692Z,101286.28
2023-04-02T04:50:32.159Z,101296.69
2023-04-02T04:53:19.942Z,101289.19
2023-04-02T04:56:12.503Z,101311.78
2023-04-02T04:59:13.216Z,101299.00
2023-04-02T05:01:55.729Z,101310.22
2023-04-02T05:04:39.288Z,101318.47
2023-04-02T05:07:22.123Z,101299.38
2023-04-02T05:10:21.822Z,101336.69
2023-04-02T05:12:53.875Z,101344.91
2023-04-02T05:15:48.836Z,101336.31
2023-04-02T05:18:41.873Z,101338.97
2023-04-02T05:21:33.868Z,101340.50
2023-04-02T05:24:37.731Z,101338.09
2023-04-02T05:27:36.605Z,101373.13
2023-04-02T05:30:13.540Z,101381.06
2023-04-02T05:33:05.158Z,101390.81
2023-04-02T05:35:36.953Z,101369.13
2023-04-02T05:38:06.638Z,101383.94
2023-04-02T05:40:41.459Z,101389.94
2023-04-02T05:43:11.107Z,101391.78
2023-04-02T05:45:47.875Z,101409.22
2023-04-02T05:48:32.435Z,101401.50
2023-04-02T05:51:00.573Z,101406.09
2023-04-02T05:53:47.330Z,101413.97
2023-04-02T05:56:42.174Z,101428.72
2023-04-02T05:59:21.779Z,101426.94
2023-04-02T06:02:24.029Z,101436.09
2023-04-02T06:05:13.581Z,101432.47
2023-04-02T06:07:55.478Z,101458.06
2023-04-02T06:10:30.879Z,101461.41
2023-04-02T06:13:07.134Z,101461.53
2023-04-02T06:15:38.721Z,101455.41
2023-04-02T06:18:23.346Z,101461.59
2023-04-02T06:20:52.763Z,101478.41
2023-04-02T06:23:24.187Z,101479.16
2023-04-02T06:26:19.290Z,101479.38
2023-04-02T06:29:04.458Z,101495.28
2023-04-02T06:32:06.831Z,101497.38
2023-04-02T06:34:36.795Z,101519.16
2023-04-02T06:37:29.057Z,101529.50
2023-04-02T06:40:44.914Z,101526.63
2023-04-02T06:43:36.158Z,101539.66
2023-04-02T06:46:40.441Z,101545.13
2023-04-02T06:49:25.426Z,101542.25
2023-04-02T06:52:00.793Z,101556.09
2023-04-02T06:54:28.791Z,101547.28
2023-04-02T06:57:00.218Z,101556.13
2023-04-02T06:59:36.589Z,101557.78
2023-04-02T07:02:38.117Z,101559.16
2023-04-02T07:05:09.353Z,101572.25
2023-04-02T07:07:39.211Z,101570.56
2023-04-02T07:10:09.465Z,101568.97
2023-04-02T07:12:36.583Z,101588.19
2023-04-02T07:15:03.865Z,101603.25
2023-04-02T07:17:31.001Z,101607.78
2023-04-02T07:20:01.005Z,101596.59
2023-04-02T07:22:28.006Z,101612.34
2023-04-02T07:24:58.741Z,101605.66
2023-04-02T07:27:26.215Z,101596.69
2023-04-02T07:29:53.199Z,101608.47
2023-04-02T07:32:20.245Z,101619.44
2023-04-02T07:34:47.347Z,101604.56
2023-04-02T07:37:14.773Z,101631.56
2023-04-02T07:39:42.275Z,101608.59
2023-04-02T07:42:09.911Z,101627.97
2023-04-02T07:44:36.817Z,101619.53
2023-04-02T07:47:04.195Z,101638.97
2023-04-02T07:49:31.156Z,101644.16
2023-04-02T07:51:58.054Z,101653.41
2023-04-02T07:54:25.059Z,101650.88
2023-04-02T07:56:51.944Z,101658.25
2023-04-02T07:59:18.907Z,101678.16
2023-04-02T08:01:45.875Z,101682.50
2023-04-02T08:04:23.100Z,101675.31
2023-04-02T08:06:50.699Z,101669.28
2023-04-02T08:09:17.889Z,101683.72
2023-04-02T08:11:46.462Z,101683.44
2023-04-02T08:14:13.720Z,101689.53
2023-04-02T08:16:51.328Z,101705.00
2023-04-02T08:19:19.682Z,101695.16
2023-04-02T08:21:50.365Z,101710.22
2023-04-02T08:24:21.370Z,101710.44
2023-04-02T08:26:51.510Z,101706.59
2023-04-02T08:29:18.549Z,101688.28
2023-04-02T08:31:45.591Z,101709.06
2023-04-02T08:34:12.872Z,101712.44
2023-04-02T08:36:43.689Z,101723.13
2023-04-02T08:39:13.749Z,101744.03
2023-04-02T08:41:48.581Z,101741.28
2023-04-02T08:44:30.271Z,101748.03
2023-04-02T08:47:04.214Z,101746.78
2023-04-02T08:50:01.682Z,101750.94
2023-04-02T08:52:37.216Z,101744.53
2023-04-02T08:55:18.588Z,101754.13
2023-04-02T08:58:13.442Z,101759.84
2023-04-02T09:00:44.316Z,101779.72
2023-04-02T09:03:25.820Z,101776.63
2023-04-02T09:05:53.523Z,101732.44
2023-04-02T09:08:25.014Z,101775.69
2023-04-02T09:10:58.780Z,101787.84
2023-04-02T09:13:29.469Z,101777.75
2023-04-02T09:16:06.461Z,101794.59
2023-04-02T09:18:33.835Z,101784.25
2023-04-02T09:21:13.044Z,101809.16
2023-04-02T09:23:39.972Z,101792.06
2023-04-02T09:26:23.531Z,101800.03
2023-04-02T09:29:12.722Z,101808.47
2023-04-02T09:32:02.489Z,101819.28
2023-04-02T09:34:31.654Z,101825.91
2023-04-02T09:37:17.643Z,101819.53
2023-04-02T09:39:45.420Z,101833.31
2023-04-02T09:42:36.197Z,101816.53
2023-04-02T09:45:23.896Z,101830.38
2023-04-02T09:47:52.628Z,101842.34
2023-04-02T09:50:23.357Z,101838.81
2023-04-02T09:52:51.385Z,101839.16
2023-04-02T09:55:26.261Z,101847.19
2023-04-02T09:58:17.323Z,101842.91
2023-04-02T10:00:52.771Z,101852.59
2023-04-02T10:03:30.047Z,101852.00
2023-04-02T10:06:08.180Z,101857.53
2023-04-02T10:08:36.988Z,101851.50
2023-04-02T10:11:11.356Z,101871.63
2023-04-02T10:13:43.459Z,101866.03
2023-04-02T10:16:34.425Z,101872.63
2023-04-02T10:19:26.428Z,101869.19
2023-04-02T10:21:55.799Z,101865.03
2023-04-02T10:24:23.442Z,101890.84
2023-04-02T10:27:11.623Z,101854.00
2023-04-02T10:30:21.814Z,101888.19
2023-04-02T10:33:38.516Z,101869.66
2023-04-02T10:36:58.576Z,101901.38
2023-04-02T10:39:47.368Z,101901.72
2023-04-02T10:42:44.395Z,101911.44
2023-04-02T10:45:29.299Z,101903.56
2023-04-02T10:48:25.430Z,101918.94
2023-04-02T10:51:33.758Z,101921.69
2023-04-02T10:54:27.875Z,101926.50
2023-04-02T10:57:04.932Z,101932.66
2023-04-02T10:59:35.425Z,101932.09
2023-04-02T11:02:31.937Z,101936.44
2023-04-02T11:05:11.638Z,101911.53
2023-04-02T11:07:53.575Z,101943.34
2023-04-02T11:10:21.716Z,101933.44
2023-04-02T11:12:58.228Z,101945.09
2023-04-02T11:15:26.164Z,101935.31
2023-04-02T11:17:53.409Z,101914.16
2023-04-02T11:20:57.219Z,101940.25
2023-04-02T11:23:29.883Z,101938.28
2023-04-02T11:26:41.072Z,101945.09
2023-04-02T11:29:25.071Z,101937.13
2023-04-02T11:32:25.192Z,101944.94
2023-04-02T11:35:05.682Z,101949.28
2023-04-02T11:37:44.990Z,101956.28
2023-04-02T11:40:12.187Z,101957.44
2023-04-02T11:42:43.044Z,101958.25
2023-04-02T11:45:52.905Z,101959.19
2023-04-02T11:48:20.069Z,101950.00
2023-04-02T11:50:47.245Z,101943.63
2023-04-02T11:53:22.767Z,101920.72
2023-04-02T11:56:09.971Z,101947.16
2023-04-02T11:58:43.713Z,101930.91
2023-04-02T12:02:11.633Z,101939.88
2023-04-02T12:05:04.195Z,101927.25
2023-04-02T12:08:05.114Z,101940.81
2023-04-02T12:10:56.161Z,101955.81
2023-04-02T12:13:41.205Z,101952.66
2023-04-02T12:16:13.020Z,101948.47
2023-04-02T12:18:55.024Z,101966.41
2023-04-02T12:21:30.033Z,101957.22
2023-04-02T12:23:59.440Z,101956.50
2023-04-02T12:26:37.375Z,101966.72
2023-04-02T12:29:28.110Z,101956.63
2023-04-02T12:31:58.362Z,101959.72
2023-04-02T12:34:29.165Z,101968.88
2023-04-02T12:36:59.874Z,101977.59
2023-04-02T12:39:28.515Z,101966.38
2023-04-02T12:41:56.431Z,101964.50
2023-04-02T12:44:30.377Z,101955.91
2023-04-02T12:46:59.264Z,101969.56
2023-04-02T12:49:40.703Z,101975.63
2023-04-02T12:52:20.893Z,101978.88
2023-04-02T12:55:00.371Z,101974.69
2023-04-02T12:57:27.459Z,101973.53
2023-04-02T12:59:57.340Z,101972.00
2023-04-02T13:02:27.540Z,101978.59
2023-04-02T13:05:03.608Z,101975.06
2023-04-02T13:07:33.579Z,101960.31
2023-04-02T13:10:05.220Z,101975.06
2023-04-02T13:12:38.642Z,101959.25
2023-04-02T13:15:09.420Z,101981.41
2023-04-02T13:17:48.682Z,101971.31
2023-04-02T13:20:38.818Z,101978.84
2023-04-02T13:23:30.601Z,101975.84
2023-04-02T13:26:01.348Z,101981.75
2023-04-02T13:28:29.303Z,101976.03
2023-04-02T13:30:56.294Z,101963.19
2023-04-02T13:33:23.220Z,101970.88
2023-04-02T13:35:50.921Z,101958.44
2023-04-02T13:38:17.868Z,101966.09
2023-04-02T13:40:45.031Z,101951.59
2023-04-02T13:43:19.756Z,101974.88
2023-04-02T13:45:52.114Z,101971.88
2023-04-02T13:48:19.404Z,101971.78
2023-04-02T13:50:52.781Z,101961.16
2023-04-02T13:53:29.367Z,101974.81
2023-04-02T13:55:56.591Z,101968.28
2023-04-02T13:58:23.760Z,101971.41
2023-04-02T14:00:51.087Z,101970.69
2023-04-02T14:03:22.361Z,101979.03
2023-04-02T14:05:59.758Z,101979.88
2023-04-02T14:09:00.169Z,101986.47
2023-04-02T14:11:57.836Z,101996.59
2023-04-02T14:14:46.560Z,101984.00
2023-04-02T14:17:43.808Z,101979.97
2023-04-02T14:20:29.293Z,101983.06
2023-04-02T14:23:20.580Z,101987.84
2023-04-02T14:25:52.896Z,101979.41
2023-04-02T14:28:23.750Z,101988.75
2023-04-02T14:31:18.464Z,101999.66
2023-04-02T14:34:09.556Z,101994.16
2023-04-02T14:37:13.859Z,101992.91
2023-04-02T14:40:21.882Z,101997.72
2023-04-02T14:43:12.169Z,101991.59
2023-04-02T14:46:01.724Z,102013.56
2023-04-02T14:48:54.436Z,102005.47
2023-04-02T14:51:43.495Z,102010.13
2023-04-02T14:54:50.215Z,102016.63
2023-04-02T14:57:25.073Z,101997.38
2023-04-02T15:00:03.782Z,102003.78
2023-04-02T15:02:41.986Z,102011.22
2023-04-02T15:05:41.310Z,101998.88
2023-04-02T15:08:38.559Z,102025.94
2023-04-02T15:11:31.299Z,102009.16
2023-04-02T15:14:19.806Z,102032.09
2023-04-02T15:16:46.917Z,102028.47
2023-04-02T15:19:19.124Z,102035.22
2023-04-02T15:22:13.167Z,102022.34
2023-04-02T15:25:15.842Z,102013.38
2023-04-02T15:28:27.981Z,102022.78
2023-04-02T15:30:58.931Z,102022.38
2023-04-02T15:33:41.907Z,102032.53
2023-04-02T15:36:33.199Z,102039.91
2023-04-02T15:39:31.882Z,102042.31
2023-04-02T15:42:34.847Z,102040.34
2023-04-02T15:45:10.739Z,102047.03
2023-04-02T15:48:17.811Z,102051.69
2023-04-02T15:50:50.943Z,102049.13
2023-04-02T15:53:26.746Z,102059.00
2023-04-02T15:56:08.095Z,102061.69
2023-04-02T15:59:07.451Z,102047.75
2023-04-02T16:02:11.912Z,102072.25
2023-04-02T16:04:47.194Z,102081.78
2023-04-02T16:07:30.727Z,102079.00
2023-04-02T16:10:12.751Z,102083.38
2023-04-02T16:12:40.949Z,102078.88
2023-04-02T16:15:37.790Z,102081.06
2023-04-02T16:18:18.441Z,102085.69
2023-04-02T16:20:47.642Z,102085.75
2023-04-02T16:23:21.124Z,102078.28
2023-04-02T16:26:09.196Z,102090.56
2023-04-02T16:29:10.735Z,102102.97
2023-04-02T16:32:16.754Z,102099.50
2023-04-02T16:38:07.696Z,102099.81
2023-04-02T16:41:07.031Z,102102.50
2023-04-02T16:44:07.933Z,102126.81
2023-04-02T16:47:04.606Z,102124.22
2023-04-02T16:50:04.224Z,102121.06
2023-04-02T16:52:59.331Z,102127.50
2023-04-02T16:55:43.023Z,102133.00
2023-04-02T16:58:50.457Z,102136.38
2023-04-02T17:01:26.409Z,102150.28
2023-04-02T17:04:10.999Z,102157.88
2023-04-02T17:06:42.778Z,102164.53
2023-04-02T17:09:17.006Z,102150.88
2023-04-02T17:12:07.653Z,102170.19
2023-04-02T17:14:48.308Z,102150.41
2023-04-02T17:17:16.404Z,102150.41
2023-04-02T17:19:53.902Z,102172.50
2023-04-02T17:22:23.394Z,102160.78
2023-04-02T17:24:59.296Z,102168.38
2023-04-02T17:27:35.001Z,102182.81
2023-04-02T17:30:16.416Z,102190.81
2023-04-02T17:32:43.800Z,102170.34
2023-04-02T17:35:29.787Z,102191.56
2023-04-02T17:38:02.683Z,102198.31
2023-04-02T17:40:43.837Z,102188.13
2023-04-02T17:43:46.093Z,102203.38
2023-04-02T17:46:31.703Z,102213.91
2023-04-02T17:49:36.401Z,102217.34
2023-04-02T17:52:30.189Z,102196.34
2023-04-02T17:55:12.338Z,102224.44
2023-04-02T17:58:01.569Z,102220.31
2023-04-02T18:00:58.206Z,102229.63
2023-04-02T18:04:03.370Z,102237.00
2023-04-02T18:06:51.570Z,102241.72
2023-04-02T18:09:36.601Z,102241.22
2023-04-02T18:12:22.145Z,102234.69
2023-04-02T18:15:36.067Z,102252.16
2023-04-02T18:18:34.208Z,102247.16
2023-04-02T18:21:19.133Z,102255.06
2023-04-02T18:24:16.028Z,102264.06
2023-04-02T18:27:05.835Z,102262.81
2023-04-02T18:29:58.566Z,102272.72
2023-04-02T18:32:50.753Z,102278.09
2023-04-02T18:35:27.982Z,102267.66
2023-04-02T18:38:04.140Z,102284.50
2023-04-02T18:40:54.250Z,102303.44
2023-04-02T18:43:53.851Z,102282.16
2023-04-02T18:46:41.353Z,102295.78
2023-04-02T18:49:25.973Z,102305.63
2023-04-02T18:51:59.844Z,102308.31
2023-04-02T18:54:49.745Z,102301.75
2023-04-02T18:57:33.936Z,102306.09
2023-04-02T19:00:14.788Z,102302.44
2023-04-02T19:02:51.189Z,102323.25
2023-04-02T19:05:35.240Z,102337.03
2023-04-02T19:08:16.706Z,102346.19
2023-04-02T19:10:53.839Z,102332.56
2023-04-02T19:13:21.481Z,102335.25
2023-04-02T19:16:19.446Z,102349.31
2023-04-02T19:19:11.094Z,102345.06
2023-04-02T19:22:01.544Z,102356.91
2023-04-02T19:25:18.644Z,102361.59
2023-04-02T19:28:00.148Z,102361.19
2023-04-02T19:31:03.975Z,102377.34
2023-04-02T19:33:45.470Z,102377.38
2023-04-02T19:36:35.752Z,102381.00
2023-04-02T19:39:49.189Z,102384.97
2023-04-02T19:42:44.078Z,102386.31
2023-04-02T19:45:35.456Z,102384.06
2023-04-02T19:48:28.109Z,102385.94
2023-04-02T19:50:56.097Z,102392.44
2023-04-02T19:53:23.032Z,102397.59
2023-04-02T19:55:51.054Z,102386.63
2023-04-02T19:58:28.097Z,102413.66
2023-04-02T20:00:58.346Z,102415.59
2023-04-02T20:03:25.580Z,102417.50
2023-04-02T20:05:53.092Z,102418.59
2023-04-02T20:08:20.570Z,102410.03
2023-04-02T20:10:47.582Z,102430.38
2023-04-02T20:13:14.626Z,102410.41
2023-04-02T20:15:41.719Z,102420.47
2023-04-02T20:18:10.450Z,102427.88
2023-04-02T20:20:39.047Z,102431.72
2023-04-02T20:23:06.883Z,102459.69
2023-04-02T20:25:33.989Z,102443.22
2023-04-02T20:28:02.892Z,102452.94
2023-04-02T20:30:32.426Z,102440.16
2023-04-02T20:32:59.891Z,102436.53
2023-04-02T20:35:27.424Z,102439.28
2023-04-02T20:37:54.462Z,102464.13
2023-04-02T20:40:21.732Z,102442.25
2023-04-02T20:42:48.692Z,102460.81
2023-04-02T20:45:15.805Z,102459.13
2023-04-02T20:47:43.505Z,102476.56
2023-04-02T20:50:11.319Z,102459.94
2023-04-02T20:52:38.301Z,102442.50
2023-04-02T20:55:06.223Z,102474.44
2023-04-02T20:57:33.248Z,102495.75
2023-04-02T21:00:02.464Z,102487.38
2023-04-02T21:02:29.379Z,102505.94
2023-04-02T21:04:56.430Z,102472.75
2023-04-02T21:07:23.497Z,102516.03
2023-04-02T21:09:51.822Z,102488.19
2023-04-02T21:12:19.082Z,102500.59
2023-04-02T21:14:46.413Z,102510.63
2023-04-02T21:17:13.356Z,102506.19
2023-04-02T21:19:40.378Z,102506.97
2023-04-02T21:22:07.301Z,102503.44
2023-04-02T21:24:34.211Z,102509.75
2023-04-02T21:27:01.363Z,102511.63
2023-04-02T21:29:28.313Z,102529.38
2023-04-02T21:31:55.288Z,102521.72
2023-04-02T21:34:22.327Z,102533.22
2023-04-02T21:36:50.465Z,102526.47
2023-04-02T21:39:23.278Z,102529.44
2023-04-02T21:41:52.991Z,102539.88
2023-04-02T21:44:22.722Z,102519.84
2023-04-02T21:46:52.157Z,102551.63
2023-04-02T21:49:22.688Z,102562.22
2023-04-02T21:51:53.852Z,102558.69
2023-04-02T21:54:21.078Z,102573.84
2023-04-02T21:56:48.692Z,102551.81
2023-04-02T21:59:17.317Z,102576.75
2023-04-02T22:01:48.534Z,102568.03
2023-04-02T22:04:24.860Z,102564.84
2023-04-02T22:06:52.940Z,102568.41
2023-04-02T22:09:23.421Z,102594.16
2023-04-02T22:11:58.763Z,102561.59
2023-04-02T22:14:25.962Z,102570.34
2023-04-02T22:16:53.356Z,102589.81
2023-04-02T22:19:20.756Z,102591.84
2023-04-02T22:21:48.051Z,102566.53
2023-04-02T22:24:22.366Z,102596.38
2023-04-02T22:26:50.020Z,102597.44
2023-04-02T22:29:17.189Z,102593.25
2023-04-02T22:31:44.321Z,102590.78
2023-04-02T22:34:11.424Z,102592.66
2023-04-02T22:36:38.328Z,102605.94
2023-04-02T22:39:09.728Z,102612.00
2023-04-02T22:41:36.681Z,102590.09
2023-04-02T22:44:03.873Z,102604.44
2023-04-02T22:46:31.433Z,102615.78
2023-04-02T22:48:58.951Z,102608.88
2023-04-02T22:51:27.490Z,102630.16
2023-04-02T22:53:55.897Z,102633.88
2023-04-02T22:56:31.602Z,102636.56
2023-04-02T22:58:58.634Z,102639.19
2023-04-02T23:01:30.531Z,102619.13
2023-04-02T23:03:58.229Z,102643.94
2023-04-02T23:06:29.234Z,102647.53
2023-04-02T23:08:56.316Z,102636.88
2023-04-02T23:11:27.431Z,102646.56
2023-04-02T23:13:56.814Z,102654.63
2023-04-02T23:16:27.079Z,102660.09
2023-04-02T23:18:55.429Z,102653.09
2023-04-02T23:21:24.002Z,102657.41
2023-04-02T23:23:51.434Z,102637.09
2023-04-02T23:26:32.228Z,102660.88
2023-04-02T23:29:00.426Z,102664.47
2023-04-02T23:31:28.006Z,102669.16
2023-04-02T23:33:55.093Z,102657.94
2023-04-02T23:36:30.763Z,102646.47
2023-04-02T23:39:01.982Z,102672.09
2023-04-02T23:41:30.415Z,102666.84
2023-04-02T23:43:58.309Z,102672.25
2023-04-02T23:46:25.835Z,102670.59
2023-04-02T23:48:54.382Z,102671.44
2023-04-02T23:51:22.048Z,102645.19
2023-04-02T23:53:50.625Z,102662.78
2023-04-02T23:56:18.942Z,102672.53
2023-04-02T23:58:45.960Z,102669.09
